首页
METAR-TAF:

METAR-TAF

机场 :

杜尚别机场

杜尚别, 塔吉克斯坦

纬度: 38-33N, 经度: 068-47E, 海拔: 803米

当前天气观测

该预报发布于35分钟前的01:30 UTC
风速8节,风向东转东北
温度 22°C
湿度 43%
气压 1012 hPa
能见度10公里或以上
少量云层高于6600英尺
散云层高于13000英尺

METAR: UTDD 310130Z 06004MPS 9999 FEW066 SCT130 22/09 Q1012 R09/D NOSIG RMK QFE691/0921

时间: 07:05 (02:05 UTC)

预报

该预报发布于2小时和5分钟前的00:00 UTC
预报有效从31日的 01点(UTC)到 31日的 13点(UTC)
风速4节,风向多变
能見度: 6000
散云层高于6000英尺, 积雨云.
多云层高于10000英尺
几率 40% :
短暂存在
从 31日的 07点(UTC)到 31日的 13点(UTC)
雷暴

TAF: UTDD 310000Z 3101/3113 VRB02MPS 6000 SCT060CB BKN100 PROB40 TEMPO 3107/3113 TS

超过4000个机场的气象观测和天气预报(METAR&TAF报告)。

可查询的气象台以黄色和红色小点在地图上表示。

将鼠标移到小点上方,可查看气象台名称。

然后点击查看天气观测和预报。

如需切换地图:点击带黑十字的绿色按钮放大地图;点击带横线的绿色按钮缩小地图;或者点击绿色箭头查看邻近地区的地图。


METAR-TAF: